Time;durP1;ratioP1;P1;durP2;ratioP2;P2;SDS_P1;SDS_P2;PMS_P1;PMS_P2;Temp;Humidity;BMP_temperature;BMP_pressure;BME280_temperature;BME280_humidity;BME280_pressure;Samples;Min_cycle;Max_cycle;Signal;HPM_P1;HPM_P2
2022/03/12 00:00:48;;;;;;;21.90;2.33;;;9.70;99.90;;;;;;5032690;28;20608;-67
2022/03/12 00:03:17;;;;;;;12.20;1.60;;;9.70;99.90;;;;;;5032387;28;20178;-67
2022/03/12 00:05:54;;;;;;;10.30;1.33;;;9.60;99.90;;;;;;5032065;28;20192;-67
2022/03/12 00:08:28;;;;;;;12.20;1.40;;;9.60;99.90;;;;;;5032718;28;20264;-67
2022/03/12 00:10:54;;;;;;;12.87;1.73;;;9.50;99.90;;;;;;5032434;28;20207;-67
2022/03/12 00:13:20;;;;;;;11.23;1.53;;;9.40;99.90;;;;;;5032640;28;20182;-67
2022/03/12 00:15:53;;;;;;;12.07;1.50;;;9.30;99.90;;;;;;5031769;28;20174;-68
2022/03/12 00:18:20;;;;;;;15.53;1.73;;;9.20;99.90;;;;;;5031256;28;20185;-68
2022/03/12 00:20:49;;;;;;;14.70;1.90;;;9.20;99.90;;;;;;5031749;28;20297;-68
2022/03/12 00:23:18;;;;;;;13.87;1.40;;;9.20;99.90;;;;;;5030919;28;20173;-68
2022/03/12 00:25:48;;;;;;;7.30;1.30;;;9.10;99.90;;;;;;5032327;28;20232;-68
2022/03/12 00:28:17;;;;;;;10.83;1.33;;;9.10;99.90;;;;;;5032692;28;20265;-68
2022/03/12 00:30:47;;;;;;;9.40;0.83;;;9.10;99.90;;;;;;5031318;28;20200;-68
2022/03/12 00:33:13;;;;;;;9.33;1.40;;;9.10;99.90;;;;;;5030791;28;20177;-68
2022/03/12 00:35:40;;;;;;;13.67;1.40;;;9.10;99.90;;;;;;5031701;28;20174;-67
2022/03/12 00:38:08;;;;;;;12.93;1.60;;;9.10;99.90;;;;;;5014308;28;20170;-68
2022/03/12 00:40:37;;;;;;;10.23;1.20;;;9.10;99.90;;;;;;5030611;28;20178;-68
2022/03/12 00:43:06;;;;;;;5.53;0.83;;;9.10;99.90;;;;;;5031947;28;20178;-66
2022/03/12 00:45:31;;;;;;;9.03;1.20;;;9.00;99.90;;;;;;5031791;28;20189;-66
2022/03/12 00:47:57;;;;;;;7.23;1.00;;;9.10;99.90;;;;;;5029768;28;20178;-67
2022/03/12 00:50:23;;;;;;;9.87;1.00;;;9.10;99.90;;;;;;5031548;28;20705;-68
2022/03/12 00:52:48;;;;;;;9.57;1.30;;;9.10;99.90;;;;;;5031527;28;20308;-66
2022/03/12 00:55:15;;;;;;;9.77;1.10;;;9.00;99.90;;;;;;5031832;28;20202;-68
2022/03/12 00:57:41;;;;;;;11.90;1.60;;;9.00;99.90;;;;;;5031440;28;20239;-68
2022/03/12 01:00:22;;;;;;;7.07;1.17;;;8.90;99.90;;;;;;5031768;28;20173;-68
2022/03/12 01:02:48;;;;;;;6.87;0.90;;;8.90;99.90;;;;;;5031790;28;20235;-68
2022/03/12 01:05:17;;;;;;;6.87;0.73;;;8.90;99.90;;;;;;5031256;28;20260;-68
2022/03/12 01:07:44;;;;;;;7.00;0.93;;;8.80;99.90;;;;;;5031764;28;20177;-69
2022/03/12 01:10:09;;;;;;;5.63;0.80;;;8.80;99.90;;;;;;5031863;28;20174;-68
2022/03/12 01:12:36;;;;;;;8.43;0.70;;;8.80;99.90;;;;;;5031527;28;20196;-68
2022/03/12 01:15:03;;;;;;;7.30;1.00;;;8.70;99.90;;;;;;5030979;28;20192;-67
2022/03/12 01:17:31;;;;;;;7.60;0.80;;;8.70;99.90;;;;;;5030968;28;20277;-67
2022/03/12 01:19:56;;;;;;;6.63;0.93;;;8.70;99.90;;;;;;5014692;28;20642;-67
2022/03/12 01:22:23;;;;;;;4.40;1.00;;;8.70;99.90;;;;;;5030882;28;20217;-67
2022/03/12 01:24:49;;;;;;;6.83;0.97;;;8.70;99.90;;;;;;5031190;28;20178;-67
2022/03/12 01:27:15;;;;;;;3.50;0.80;;;8.80;99.90;;;;;;5030938;28;20273;-67
2022/03/12 01:29:42;;;;;;;8.97;1.00;;;8.80;99.90;;;;;;5030762;28;20219;-67
2022/03/12 01:32:09;;;;;;;4.40;0.47;;;8.80;99.90;;;;;;5031451;28;20200;-67
2022/03/12 01:34:35;;;;;;;5.07;0.60;;;8.70;99.90;;;;;;5031114;28;20193;-68
2022/03/12 01:37:01;;;;;;;8.00;0.83;;;8.70;99.90;;;;;;5031082;28;20578;-67
2022/03/12 01:39:28;;;;;;;5.60;0.70;;;8.70;99.90;;;;;;5030654;28;20188;-67
2022/03/12 01:41:54;;;;;;;3.50;0.50;;;8.70;99.90;;;;;;5030523;28;20209;-66
2022/03/12 01:44:21;;;;;;;6.93;0.67;;;8.70;99.90;;;;;;5030689;28;20182;-66
2022/03/12 01:46:49;;;;;;;8.77;0.73;;;8.70;99.90;;;;;;5030715;28;20587;-69
2022/03/12 01:49:18;;;;;;;3.80;0.90;;;8.70;99.90;;;;;;5030210;28;20200;-68
2022/03/12 01:51:45;;;;;;;2.10;0.60;;;8.70;99.90;;;;;;5030313;28;20189;-68
2022/03/12 01:54:13;;;;;;;3.83;0.90;;;8.90;99.90;;;;;;5029503;28;20625;-68
2022/03/12 01:56:40;;;;;;;4.43;0.80;;;8.60;99.90;;;;;;5030127;28;20260;-69
2022/03/12 01:59:07;;;;;;;6.07;0.73;;;8.60;99.90;;;;;;5030572;28;20696;-69
2022/03/12 02:01:33;;;;;;;4.37;0.47;;;8.60;99.90;;;;;;5029963;28;20213;-69
2022/03/12 02:04:00;;;;;;;2.20;0.53;;;8.50;99.90;;;;;;5030723;28;20204;-69
2022/03/12 02:06:27;;;;;;;5.80;1.10;;;8.50;99.90;;;;;;5030622;28;20224;-69
2022/03/12 02:08:58;;;;;;;6.53;0.77;;;8.50;99.90;;;;;;5030865;28;20166;-69
2022/03/12 02:11:28;;;;;;;3.70;0.67;;;8.50;99.90;;;;;;5030512;28;20502;-70
2022/03/12 02:13:57;;;;;;;4.73;0.70;;;8.40;99.90;;;;;;5029963;28;20205;-69
2022/03/12 02:16:23;;;;;;;3.47;0.77;;;8.40;99.90;;;;;;5030313;28;20223;-70
2022/03/12 02:18:48;;;;;;;3.40;0.43;;;8.30;99.90;;;;;;5028582;28;20170;-70
2022/03/12 02:21:14;;;;;;;6.50;1.03;;;9.60;99.90;;;;;;5030192;28;20206;-70
2022/03/12 02:23:47;;;;;;;5.10;0.63;;;8.30;99.90;;;;;;5028378;28;20174;-71
2022/03/12 02:26:13;;;;;;;1.93;0.57;;;8.30;99.90;;;;;;5030030;28;20537;-70
2022/03/12 02:28:39;;;;;;;7.73;0.67;;;8.20;99.90;;;;;;5029897;28;20170;-70
2022/03/12 02:31:05;;;;;;;4.17;0.80;;;8.20;99.90;;;;;;5030283;28;20182;-67
2022/03/12 02:33:31;;;;;;;4.73;0.80;;;8.20;99.90;;;;;;5030196;28;20173;-68
2022/03/12 02:35:58;;;;;;;4.10;0.67;;;8.20;99.90;;;;;;5030439;28;20657;-69
2022/03/12 02:38:28;;;;;;;5.30;1.00;;;8.20;99.90;;;;;;5029863;28;20173;-69
2022/03/12 02:40:54;;;;;;;4.57;0.80;;;8.20;99.90;;;;;;5029841;28;20296;-69
2022/03/12 02:43:26;;;;;;;5.03;0.77;;;8.20;99.90;;;;;;5029898;28;20184;-69
2022/03/12 02:45:53;;;;;;;7.13;0.90;;;8.20;99.90;;;;;;5029948;28;20204;-69
2022/03/12 02:48:19;;;;;;;3.77;0.53;;;8.20;99.90;;;;;;5029916;28;20170;-68
2022/03/12 02:50:45;;;;;;;12.23;1.00;;;8.20;99.90;;;;;;5030005;28;20218;-68
2022/03/12 02:53:11;;;;;;;3.00;0.50;;;8.20;99.90;;;;;;5030753;28;20272;-69
2022/03/12 02:55:40;;;;;;;4.83;0.77;;;8.20;99.90;;;;;;5034286;28;20236;-69
2022/03/12 02:58:09;;;;;;;4.20;0.60;;;8.10;99.90;;;;;;5033785;28;20205;-69
2022/03/12 03:00:37;;;;;;;6.30;0.90;;;8.10;99.90;;;;;;5033371;28;20214;-69
2022/03/12 03:03:05;;;;;;;7.60;1.00;;;8.10;99.90;;;;;;5014790;28;20641;-69
2022/03/12 03:07:58;;;;;;;3.00;0.40;;;8.00;99.90;;;;;;5033752;28;20166;-69
2022/03/12 03:10:35;;;;;;;4.83;0.70;;;8.00;99.90;;;;;;5034190;28;20257;-68
2022/03/12 03:13:15;;;;;;;4.67;0.90;;;8.00;99.90;;;;;;5033737;28;20178;-68
2022/03/12 03:15:47;;;;;;;2.17;0.50;;;8.00;99.90;;;;;;5033009;28;20189;-69
2022/03/12 03:18:15;;;;;;;3.50;0.73;;;8.00;99.90;;;;;;5033443;28;20206;-68
2022/03/12 03:20:45;;;;;;;4.23;0.93;;;8.00;99.90;;;;;;5032780;28;20656;-67
2022/03/12 03:23:11;;;;;;;3.10;0.80;;;7.90;99.90;;;;;;5033315;28;20190;-66
2022/03/12 03:25:37;;;;;;;7.37;0.63;;;7.90;99.90;;;;;;5015218;28;20185;-66
2022/03/12 03:28:05;;;;;;;3.17;0.73;;;7.90;99.90;;;;;;5032429;28;20659;-66
2022/03/12 03:30:34;;;;;;;3.90;0.70;;;7.90;99.90;;;;;;5032888;28;20585;-67
2022/03/12 03:33:01;;;;;;;2.27;0.60;;;7.80;99.90;;;;;;5033289;28;20721;-66
2022/03/12 03:35:27;;;;;;;3.00;0.50;;;7.80;99.90;;;;;;5033091;28;20178;-66
2022/03/12 03:37:53;;;;;;;4.37;0.80;;;7.80;99.90;;;;;;5032953;28;20240;-66
2022/03/12 03:40:18;;;;;;;3.50;0.73;;;7.70;99.90;;;;;;5032904;28;20572;-66
2022/03/12 03:42:44;;;;;;;5.40;0.63;;;7.70;99.90;;;;;;5032955;28;20957;-66
2022/03/12 03:45:10;;;;;;;3.63;0.63;;;7.70;99.90;;;;;;5032978;28;20222;-67
2022/03/12 03:47:36;;;;;;;5.83;0.70;;;7.70;99.90;;;;;;5032520;28;20174;-67
2022/03/12 03:50:02;;;;;;;1.80;0.53;;;7.60;99.90;;;;;;5033119;28;20296;-65
2022/03/12 03:52:28;;;;;;;5.93;0.83;;;7.70;99.90;;;;;;5032761;28;20177;-65
2022/03/12 03:54:53;;;;;;;2.17;0.40;;;7.70;99.90;;;;;;5032860;28;20259;-65
2022/03/12 03:57:19;;;;;;;5.03;0.60;;;7.60;99.90;;;;;;5032660;28;20644;-66
2022/03/12 03:59:44;;;;;;;4.87;0.77;;;7.60;99.90;;;;;;5033046;28;20174;-66
2022/03/12 04:02:10;;;;;;;3.10;0.67;;;7.60;99.90;;;;;;5032704;28;20224;-65
2022/03/12 04:04:38;;;;;;;2.30;0.57;;;7.50;99.90;;;;;;5014594;28;20240;-66
2022/03/12 04:07:05;;;;;;;4.27;0.80;;;7.50;99.90;;;;;;5032715;28;20173;-66
2022/03/12 04:09:31;;;;;;;4.90;0.70;;;7.40;99.90;;;;;;5014927;28;20209;-65
2022/03/12 04:11:56;;;;;;;3.93;0.60;;;7.40;99.90;;;;;;5030596;28;20655;-65
2022/03/12 04:14:23;;;;;;;5.97;0.70;;;7.30;99.90;;;;;;5032835;28;20170;-65
2022/03/12 04:16:48;;;;;;;2.10;0.50;;;7.30;99.90;;;;;;5031946;28;20189;-65
2022/03/12 04:19:14;;;;;;;3.33;0.47;;;7.30;99.90;;;;;;5031092;28;20563;-66
2022/03/12 04:21:40;;;;;;;9.60;0.97;;;7.30;99.90;;;;;;5032327;28;20676;-68
2022/03/12 04:24:06;;;;;;;5.87;0.70;;;7.20;99.90;;;;;;5032069;28;20672;-66
2022/03/12 04:26:35;;;;;;;4.13;0.67;;;7.10;99.90;;;;;;5032409;28;20182;-66
2022/03/12 04:29:04;;;;;;;2.90;0.53;;;7.20;99.90;;;;;;5018075;28;20263;-66
2022/03/12 04:31:30;;;;;;;6.87;0.60;;;7.20;99.90;;;;;;5032303;28;20162;-66
2022/03/12 04:33:56;;;;;;;1.87;0.40;;;7.20;99.90;;;;;;5032150;28;20206;-66
2022/03/12 04:36:22;;;;;;;2.67;0.53;;;7.10;99.90;;;;;;5032043;28;20194;-66
2022/03/12 04:38:49;;;;;;;5.10;0.70;;;7.10;99.90;;;;;;5032298;28;20178;-66
2022/03/12 04:41:16;;;;;;;2.73;0.60;;;7.10;99.90;;;;;;5032389;28;20205;-68
2022/03/12 04:43:42;;;;;;;4.07;0.50;;;7.00;99.90;;;;;;5031906;28;20189;-68
2022/03/12 04:46:08;;;;;;;0.60;0.30;;;6.90;99.90;;;;;;5032254;28;20210;-68
2022/03/12 04:48:33;;;;;;;1.43;0.33;;;6.80;99.90;;;;;;5031742;28;20604;-68
2022/03/12 04:50:59;;;;;;;5.07;0.60;;;7.00;99.90;;;;;;5031793;28;20217;-69
2022/03/12 04:53:26;;;;;;;5.83;0.40;;;6.90;99.90;;;;;;5014233;28;20764;-69
2022/03/12 04:55:52;;;;;;;8.90;0.80;;;6.90;99.90;;;;;;5031729;28;20214;-69
2022/03/12 04:58:19;;;;;;;2.90;0.50;;;6.80;99.90;;;;;;5031603;28;20235;-69
2022/03/12 05:00:46;;;;;;;5.13;0.83;;;6.80;99.90;;;;;;5031341;28;20193;-69
2022/03/12 05:03:19;;;;;;;4.33;0.60;;;6.80;99.90;;;;;;5029648;28;20182;-68
2022/03/12 05:05:48;;;;;;;5.33;0.80;;;6.70;99.90;;;;;;5031596;28;20232;-68
2022/03/12 05:08:23;;;;;;;4.30;0.77;;;6.70;99.90;;;;;;5031343;28;20276;-67
2022/03/12 05:10:51;;;;;;;8.33;1.10;;;6.70;99.90;;;;;;5031618;28;20268;-67
2022/03/12 05:13:25;;;;;;;11.30;0.97;;;6.80;99.90;;;;;;5031441;28;20182;-67
2022/03/12 05:15:56;;;;;;;6.47;0.77;;;6.70;99.90;;;;;;5030804;28;20185;-68
2022/03/12 05:18:23;;;;;;;9.73;0.93;;;6.70;99.90;;;;;;5030638;28;20228;-65
2022/03/12 05:20:49;;;;;;;6.20;0.90;;;6.70;99.90;;;;;;5031153;28;20281;-66
2022/03/12 05:23:17;;;;;;;12.63;2.20;;;6.70;99.90;;;;;;5031017;28;20232;-66
2022/03/12 05:25:44;;;;;;;16.70;1.23;;;6.80;99.90;;;;;;5030746;28;20174;-67
2022/03/12 05:28:16;;;;;;;9.60;1.70;;;6.80;99.90;;;;;;5030830;28;20205;-66
2022/03/12 05:30:45;;;;;;;7.13;1.00;;;6.90;99.90;;;;;;5031159;28;20174;-65
2022/03/12 05:33:12;;;;;;;10.77;1.03;;;6.80;99.90;;;;;;5030754;28;20647;-66
2022/03/12 05:35:40;;;;;;;7.10;0.97;;;6.70;99.90;;;;;;5031211;28;20556;-66
2022/03/12 05:38:06;;;;;;;12.03;1.10;;;6.70;99.90;;;;;;5030932;28;20717;-67
2022/03/12 05:40:38;;;;;;;13.90;1.43;;;6.70;99.90;;;;;;5029194;28;20273;-67
2022/03/12 05:43:09;;;;;;;8.67;1.20;;;6.70;99.90;;;;;;5030823;28;20216;-67
2022/03/12 05:45:36;;;;;;;15.67;1.50;;;6.80;99.90;;;;;;5013000;28;20178;-67
2022/03/12 05:48:02;;;;;;;9.60;1.10;;;6.80;99.90;;;;;;5030605;28;20637;-67
2022/03/12 05:50:27;;;;;;;9.93;1.37;;;6.70;99.90;;;;;;5030730;28;20278;-67
2022/03/12 05:52:54;;;;;;;12.83;1.30;;;6.70;99.90;;;;;;5030500;28;20613;-67
2022/03/12 05:55:23;;;;;;;11.27;1.37;;;6.70;99.90;;;;;;5030738;28;20263;-66
2022/03/12 05:57:50;;;;;;;13.20;1.10;;;6.60;99.90;;;;;;5030478;28;20284;-66
2022/03/12 06:00:17;;;;;;;13.50;1.83;;;6.80;99.90;;;;;;5029348;28;20173;-66
2022/03/12 06:02:52;;;;;;;14.27;1.60;;;6.70;99.90;;;;;;5030472;28;20217;-66
2022/03/12 06:05:23;;;;;;;15.77;1.80;;;6.80;99.90;;;;;;5030141;28;20295;-67
2022/03/12 06:07:51;;;;;;;11.60;1.47;;;6.90;99.90;;;;;;5030368;28;20198;-66
2022/03/12 06:10:20;;;;;;;17.37;2.33;;;7.00;99.90;;;;;;5030535;28;20264;-66
2022/03/12 06:12:46;;;;;;;10.87;1.60;;;7.00;99.90;;;;;;5030012;28;20689;-66
2022/03/12 06:15:16;;;;;;;12.10;1.70;;;6.90;99.90;;;;;;5030426;28;20180;-66
2022/03/12 06:17:42;;;;;;;13.63;1.73;;;7.00;99.90;;;;;;5029788;28;20641;-66
2022/03/12 06:20:12;;;;;;;16.70;1.60;;;6.90;99.90;;;;;;5030119;28;20327;-66
2022/03/12 06:22:38;;;;;;;7.07;1.57;;;6.90;99.90;;;;;;5030151;28;20209;-66
2022/03/12 06:25:06;;;;;;;15.30;1.63;;;6.90;99.90;;;;;;5030483;28;20182;-65
2022/03/12 06:27:32;;;;;;;11.00;1.23;;;6.90;99.90;;;;;;5027441;28;20620;-65
2022/03/12 06:29:57;;;;;;;16.47;2.17;;;7.00;99.90;;;;;;5029757;28;20251;-66
2022/03/12 06:32:23;;;;;;;12.10;1.70;;;6.30;99.90;;;;;;5030214;28;20645;-66
2022/03/12 06:34:49;;;;;;;11.83;1.77;;;7.10;99.90;;;;;;5030551;28;20176;-66
2022/03/12 06:37:15;;;;;;;19.30;2.27;;;7.00;99.90;;;;;;5030046;28;20186;-66
2022/03/12 06:39:41;;;;;;;10.73;1.27;;;7.10;99.90;;;;;;5030030;28;20173;-66
2022/03/12 06:42:07;;;;;;;14.23;1.50;;;7.20;99.90;;;;;;5030080;28;20741;-66
2022/03/12 06:44:34;;;;;;;9.00;1.60;;;7.20;99.90;;;;;;5030434;28;20178;-66
2022/03/12 06:47:01;;;;;;;14.13;1.90;;;7.20;99.90;;;;;;5030058;28;20170;-64
2022/03/12 06:49:27;;;;;;;13.77;1.97;;;7.30;99.90;;;;;;5029744;28;20184;-70
2022/03/12 06:51:54;;;;;;;13.40;1.20;;;7.30;99.90;;;;;;5029763;28;20186;-69
2022/03/12 06:54:20;;;;;;;16.20;1.30;;;7.40;99.90;;;;;;5030417;28;20170;-68
2022/03/12 06:56:46;;;;;;;17.80;1.60;;;7.40;99.90;;;;;;5030099;28;20229;-70
2022/03/12 06:59:12;;;;;;;19.20;2.10;;;7.40;99.90;;;;;;5029953;28;20184;-69
2022/03/12 07:01:38;;;;;;;9.07;1.47;;;7.50;99.90;;;;;;5029029;28;20217;-70
2022/03/12 07:04:04;;;;;;;14.13;1.40;;;7.60;99.90;;;;;;5028769;28;20614;-69
2022/03/12 07:06:29;;;;;;;18.97;1.77;;;7.60;99.90;;;;;;5029725;28;20181;-72
2022/03/12 07:08:55;;;;;;;12.03;1.67;;;7.60;99.90;;;;;;5029978;28;20237;-68
2022/03/12 07:11:21;;;;;;;18.63;1.60;;;7.60;99.90;;;;;;5029176;28;20182;-71
2022/03/12 07:13:47;;;;;;;21.13;1.43;;;7.70;99.90;;;;;;5029413;28;20200;-70
2022/03/12 07:16:13;;;;;;;17.77;1.87;;;7.70;99.90;;;;;;5029779;28;20169;-70
2022/03/12 07:18:44;;;;;;;7.80;1.30;;;7.70;99.90;;;;;;5029173;28;20178;-70
2022/03/12 07:21:10;;;;;;;18.30;1.53;;;;;;;;;;5029877;28;20672;-71
2022/03/12 07:23:36;;;;;;;10.87;0.90;;;7.70;99.90;;;;;;5011847;28;20202;-70
2022/03/12 07:26:02;;;;;;;9.53;1.27;;;7.80;99.90;;;;;;5029764;28;20232;-70
2022/03/12 07:28:27;;;;;;;9.13;1.23;;;7.80;99.90;;;;;;5029743;28;20261;-68
2022/03/12 07:30:54;;;;;;;9.97;1.63;;;7.80;99.90;;;;;;5029421;28;20253;-67
2022/03/12 07:33:20;;;;;;;11.60;1.37;;;7.90;99.90;;;;;;5029849;28;20174;-68
2022/03/12 07:35:45;;;;;;;9.63;1.20;;;7.90;99.90;;;;;;5029659;28;20705;-67
2022/03/12 07:38:12;;;;;;;9.37;1.33;;;7.90;99.90;;;;;;5029832;28;20532;-67
2022/03/12 07:40:40;;;;;;;12.87;1.50;;;7.90;99.90;;;;;;5032443;28;20652;-66
2022/03/12 07:43:06;;;;;;;15.07;2.13;;;8.00;99.90;;;;;;5033442;28;20178;-67
2022/03/12 07:45:31;;;;;;;10.50;1.23;;;8.00;99.90;;;;;;5032776;28;20182;-68
2022/03/12 07:47:57;;;;;;;16.07;1.67;;;8.00;99.90;;;;;;5033294;28;20174;-68
2022/03/12 07:50:23;;;;;;;12.90;1.43;;;8.00;99.90;;;;;;5032579;28;20231;-68
2022/03/12 07:52:50;;;;;;;9.23;1.47;;;8.10;99.90;;;;;;5032237;28;20170;-73
2022/03/12 07:55:17;;;;;;;13.03;1.30;;;8.20;99.90;;;;;;5032349;28;20257;-67
2022/03/12 07:57:42;;;;;;;11.50;1.33;;;8.20;99.90;;;;;;5032569;28;20181;-67
2022/03/12 08:00:20;;;;;;;11.43;1.20;;;8.30;99.90;;;;;;5032782;28;20597;-65
2022/03/12 08:02:47;;;;;;;10.80;1.10;;;8.30;99.90;;;;;;5014678;28;20264;-67
2022/03/12 08:05:21;;;;;;;11.30;1.43;;;8.40;99.90;;;;;;5033038;28;20540;-66
2022/03/12 08:07:46;;;;;;;9.27;1.20;;;8.40;99.90;;;;;;5032715;28;20166;-67
2022/03/12 08:10:12;;;;;;;16.20;1.40;;;8.50;99.90;;;;;;5032822;28;20193;-67
2022/03/12 08:12:38;;;;;;;5.73;1.10;;;8.60;99.90;;;;;;5032753;28;20162;-64
2022/03/12 08:15:08;;;;;;;11.20;0.90;;;8.60;99.90;;;;;;5034226;28;20174;-73
2022/03/12 08:17:34;;;;;;;10.03;1.30;;;8.70;99.90;;;;;;5015610;28;20185;-73
2022/03/12 08:20:06;;;;;;;12.50;1.20;;;8.80;99.90;;;;;;5032666;28;20544;-72
2022/03/12 08:22:32;;;;;;;12.87;1.00;;;8.80;99.90;;;;;;5032598;28;20252;-72
2022/03/12 08:24:58;;;;;;;11.20;1.30;;;8.80;99.90;;;;;;5032628;28;20676;-62
2022/03/12 08:27:24;;;;;;;7.47;1.03;;;8.90;99.90;;;;;;5032158;28;20178;-64
2022/03/12 08:29:50;;;;;;;9.60;1.60;;;9.00;99.90;;;;;;5032348;28;20166;-63
2022/03/12 08:32:15;;;;;;;10.40;1.20;;;8.70;99.90;;;;;;5030663;28;20243;-63
2022/03/12 08:34:41;;;;;;;12.53;1.10;;;9.10;99.90;;;;;;5038924;28;20700;-63
2022/03/12 08:37:08;;;;;;;10.57;1.27;;;9.20;99.90;;;;;;5052548;28;20162;-62
2022/03/12 08:39:34;;;;;;;9.03;1.23;;;9.30;99.90;;;;;;5038164;28;20613;-61
2022/03/12 08:42:00;;;;;;;11.53;1.63;;;11.40;99.90;;;;;;5031783;28;20217;-64
2022/03/12 08:44:25;;;;;;;8.90;1.20;;;13.70;99.90;;;;;;5032506;28;20177;-66
2022/03/12 08:46:52;;;;;;;12.90;1.60;;;14.60;99.90;;;;;;5030857;28;20592;-63
2022/03/12 08:49:18;;;;;;;5.97;1.23;;;13.90;99.90;;;;;;5032046;28;20170;-64
2022/03/12 08:51:44;;;;;;;9.50;2.03;;;13.40;99.90;;;;;;5030057;28;20220;-66
2022/03/12 08:54:10;;;;;;;7.70;0.90;;;12.40;99.90;;;;;;5031792;28;20264;-67
2022/03/12 08:56:36;;;;;;;8.73;1.42;;;12.50;99.90;;;;;;5031907;28;20178;-67
2022/03/12 08:59:03;;;;;;;6.13;1.00;;;13.50;99.90;;;;;;5031728;28;20706;-67
2022/03/12 09:01:30;;;;;;;9.13;1.33;;;14.90;99.90;;;;;;5030221;28;20220;-67
2022/03/12 09:03:56;;;;;;;9.00;1.40;;;14.70;99.90;;;;;;5031620;28;20170;-67
2022/03/12 09:06:23;;;;;;;8.57;1.33;;;14.50;99.90;;;;;;5031904;28;20185;-67
2022/03/12 09:08:49;;;;;;;13.33;1.40;;;15.00;99.90;;;;;;5030597;28;20178;-67
2022/03/12 09:11:18;;;;;;;10.83;1.13;;;13.50;99.90;;;;;;5030957;28;20170;-74
2022/03/12 09:13:46;;;;;;;5.73;1.13;;;14.00;99.90;;;;;;5031753;28;20192;-74
2022/03/12 09:16:14;;;;;;;9.13;1.40;;;15.80;99.90;;;;;;5031339;28;20177;-74
2022/03/12 09:18:41;;;;;;;10.70;1.30;;;15.80;99.90;;;;;;5031661;28;20239;-75
2022/03/12 09:21:08;;;;;;;6.47;1.05;;;15.80;99.90;;;;;;5031542;28;20212;-74
2022/03/12 09:23:34;;;;;;;6.50;1.33;;;14.00;99.90;;;;;;5031703;28;20173;-74
2022/03/12 09:26:00;;;;;;;5.97;1.42;;;15.60;99.90;;;;;;5031144;28;20182;-63
2022/03/12 09:28:26;;;;;;;10.85;1.35;;;16.70;99.90;;;;;;5031526;28;20177;-61
2022/03/12 09:30:53;;;;;;;7.18;1.02;;;16.40;99.90;;;;;;5031307;28;20181;-60
2022/03/12 09:33:21;;;;;;;11.13;1.67;;;14.80;99.90;;;;;;5031465;28;20182;-60
2022/03/12 09:35:47;;;;;;;5.68;0.95;;;13.30;99.90;;;;;;5031431;28;20162;-62
2022/03/12 09:38:14;;;;;;;5.65;1.00;;;14.70;99.90;;;;;;5031386;28;20174;-60
2022/03/12 09:40:41;;;;;;;7.38;1.50;;;16.30;99.90;;;;;;5030942;28;20169;-62
2022/03/12 09:43:08;;;;;;;6.13;1.15;;;16.50;99.90;;;;;;5030913;28;20217;-60
2022/03/12 09:45:34;;;;;;;8.57;1.73;;;17.30;99.90;;;;;;5031196;28;20227;-60
2022/03/12 09:48:00;;;;;;;7.97;1.23;;;17.40;99.90;;;;;;5030938;28;20541;-62
2022/03/12 09:50:26;;;;;;;11.27;1.40;;;16.90;99.90;;;;;;5030560;28;20239;-61
2022/03/12 09:52:52;;;;;;;8.30;1.42;;;18.10;99.90;;;;;;5030546;28;20170;-59
2022/03/12 09:55:19;;;;;;;10.98;1.92;;;16.50;99.90;;;;;;5030729;28;20834;-60
2022/03/12 09:57:46;;;;;;;8.73;1.50;;;18.00;99.90;;;;;;5012887;28;20166;-60
2022/03/12 10:00:13;;;;;;;12.30;1.42;;;18.70;99.90;;;;;;5030560;28;20186;-60
2022/03/12 10:02:39;;;;;;;12.15;1.85;;;18.70;99.90;;;;;;5029095;28;20230;-61
2022/03/12 10:05:05;;;;;;;11.15;1.77;;;19.40;99.90;;;;;;5029309;28;20166;-61
2022/03/12 10:07:31;;;;;;;11.43;1.50;;;20.10;99.90;;;;;;5027238;28;20641;-59
2022/03/12 10:09:57;;;;;;;8.70;1.40;;;19.50;99.90;;;;;;5038374;28;20161;-59
2022/03/12 10:12:23;;;;;;;8.02;1.23;;;19.00;99.90;;;;;;5031802;28;20173;-59
2022/03/12 10:14:49;;;;;;;6.10;1.23;;;19.20;99.90;;;;;;5033972;28;20185;-60
2022/03/12 10:17:17;;;;;;;6.40;1.45;;;19.80;99.90;;;;;;5030697;28;20645;-60
2022/03/12 10:19:47;;;;;;;7.95;1.40;;;19.40;99.90;;;;;;5030613;28;20644;-60
2022/03/12 10:22:14;;;;;;;8.07;1.50;;;19.20;99.90;;;;;;5030627;28;20300;-61
2022/03/12 10:24:40;;;;;;;7.40;1.67;;;18.90;99.90;;;;;;5030550;28;20180;-58
2022/03/12 10:27:08;;;;;;;12.52;1.85;;;18.90;99.90;;;;;;5046639;28;20169;-59
2022/03/12 10:29:35;;;;;;;5.05;1.02;;;19.20;99.90;;;;;;5050807;28;20169;-59
2022/03/12 10:32:23;;;;;;;10.18;1.50;;;19.20;99.90;;;;;;5050285;28;20185;-59
2022/03/12 10:34:53;;;;;;;9.93;1.67;;;18.10;99.90;;;;;;5050248;28;20603;-59
2022/03/12 10:37:24;;;;;;;9.13;2.00;;;19.50;99.90;;;;;;5050333;28;20714;-60
2022/03/12 10:40:11;;;;;;;4.82;0.95;;;19.40;99.90;;;;;;5050426;28;20246;-60
2022/03/12 10:42:59;;;;;;;6.30;1.48;;;18.30;99.90;;;;;;5040671;28;20220;-60
2022/03/12 10:45:30;;;;;;;8.88;1.42;;;19.60;99.90;;;;;;5050395;28;20173;-60
2022/03/12 10:48:02;;;;;;;9.18;1.60;;;18.40;99.90;;;;;;5050668;28;20184;-57
2022/03/12 10:50:37;;;;;;;11.10;1.80;;;19.60;99.90;;;;;;5049973;28;20630;-59
2022/03/12 10:53:05;;;;;;;11.05;1.58;;;20.00;99.90;;;;;;5050252;28;20631;-59
2022/03/12 10:55:34;;;;;;;9.15;1.63;;;21.10;99.90;;;;;;5050263;28;20173;-60
2022/03/12 10:58:26;;;;;;;8.63;1.63;;;19.90;99.90;;;;;;5050089;28;20652;-59
2022/03/12 11:00:52;;;;;;;6.28;1.58;;;19.00;99.90;;;;;;5050039;28;20173;-59
2022/03/12 11:03:23;;;;;;;7.25;1.50;;;19.80;99.90;;;;;;5036093;28;20196;-59
2022/03/12 11:05:50;;;;;;;5.75;1.58;;;19.80;99.90;;;;;;5030091;28;20276;-60
2022/03/12 11:08:22;;;;;;;4.65;1.27;;;17.90;99.90;;;;;;5030284;28;20339;-60
2022/03/12 11:10:52;;;;;;;4.30;1.27;;;20.40;99.90;;;;;;5030060;28;20567;-60
2022/03/12 11:13:31;;;;;;;6.22;1.35;;;21.30;99.90;;;;;;5029772;28;20178;-59
2022/03/12 11:16:15;;;;;;;7.32;1.67;;;18.70;99.90;;;;;;5033388;28;20174;-59
2022/03/12 11:18:53;;;;;;;5.20;1.20;;;19.70;99.90;;;;;;5033978;28;20178;-60
2022/03/12 11:21:37;;;;;;;7.45;1.35;;;20.50;99.90;;;;;;5033522;28;20222;-60
2022/03/12 11:24:13;;;;;;;6.75;1.30;;;20.10;99.90;;;;;;5033599;28;20169;-60
2022/03/12 11:26:46;;;;;;;7.55;1.48;;;20.00;99.90;;;;;;5033551;28;20166;-60
2022/03/12 11:29:13;;;;;;;4.15;1.05;;;18.80;99.90;;;;;;5033858;28;20328;-59
2022/03/12 11:31:42;;;;;;;6.72;1.33;;;19.00;99.90;;;;;;5033693;28;20173;-60
2022/03/12 11:34:32;;;;;;;10.07;1.40;;;18.90;99.90;;;;;;5033673;28;20178;-59
2022/03/12 11:37:05;;;;;;;5.03;1.15;;;19.60;99.90;;;;;;5033504;28;20178;-59
2022/03/12 11:39:33;;;;;;;3.38;0.75;;;19.10;99.90;;;;;;5033529;28;20182;-59
2022/03/12 11:42:06;;;;;;;6.07;1.02;;;16.00;99.90;;;;;;5033449;28;20267;-59
2022/03/12 11:44:33;;;;;;;3.50;0.90;;;17.30;99.90;;;;;;5033289;28;20231;-60
2022/03/12 11:46:59;;;;;;;7.22;0.98;;;17.30;99.90;;;;;;5033250;28;20359;-59
2022/03/12 11:49:25;;;;;;;7.25;1.00;;;15.20;99.90;;;;;;5033133;28;20165;-59
2022/03/12 11:51:52;;;;;;;2.95;0.98;;;15.70;99.90;;;;;;5033328;28;20543;-59
2022/03/12 11:54:18;;;;;;;6.53;1.15;;;17.70;99.90;;;;;;5032999;28;20556;-59
2022/03/12 11:56:43;;;;;;;5.90;1.00;;;18.60;99.90;;;;;;5033290;28;20169;-60
2022/03/12 11:59:10;;;;;;;6.63;1.00;;;17.60;99.90;;;;;;5033000;28;20660;-60
2022/03/12 12:01:37;;;;;;;6.55;0.90;;;17.20;99.90;;;;;;5033024;28;20205;-59
2022/03/12 12:04:04;;;;;;;3.63;1.00;;;15.90;99.90;;;;;;5031643;28;20184;-59
2022/03/12 12:06:30;;;;;;;4.13;0.90;;;16.60;99.90;;;;;;5033146;28;20261;-59
2022/03/12 12:08:57;;;;;;;6.95;1.35;;;17.70;99.90;;;;;;5032836;28;20692;-60
2022/03/12 12:11:23;;;;;;;5.60;1.27;;;15.80;99.90;;;;;;5032807;28;20196;-60
2022/03/12 12:13:48;;;;;;;2.95;0.73;;;15.00;99.90;;;;;;5032728;28;20636;-59
2022/03/12 12:16:16;;;;;;;5.28;0.90;;;15.90;99.90;;;;;;5032799;28;20170;-62
2022/03/12 12:18:41;;;;;;;4.60;0.85;;;16.80;99.90;;;;;;5032820;28;20276;-60
2022/03/12 12:21:16;;;;;;;6.13;0.82;;;16.50;99.90;;;;;;5032696;28;20208;-59
2022/03/12 12:23:42;;;;;;;4.05;0.85;;;16.40;99.90;;;;;;5032763;28;20162;-60
2022/03/12 12:26:09;;;;;;;4.70;0.80;;;15.10;99.90;;;;;;5031267;28;20170;-59
2022/03/12 12:28:50;;;;;;;7.60;1.10;;;13.70;99.90;;;;;;5032566;28;20170;-60
2022/03/12 12:31:26;;;;;;;5.90;0.80;;;13.70;99.90;;;;;;5032778;28;20170;-60
2022/03/12 12:33:55;;;;;;;5.15;0.70;;;13.70;99.90;;;;;;5032628;28;20191;-59
2022/03/12 12:36:23;;;;;;;5.70;1.10;;;13.10;99.90;;;;;;5032492;28;20640;-60
2022/03/12 12:39:12;;;;;;;3.75;0.77;;;13.00;99.90;;;;;;5030442;28;20960;-59
2022/03/12 12:41:52;;;;;;;10.27;0.97;;;12.80;99.90;;;;;;5031281;28;20197;-59
2022/03/12 12:44:39;;;;;;;7.30;1.00;;;12.60;99.90;;;;;;5052372;28;20194;-59
2022/03/12 12:47:07;;;;;;;5.10;1.00;;;12.70;99.90;;;;;;5032123;28;20568;-60
2022/03/12 12:49:36;;;;;;;10.27;1.47;;;12.50;99.90;;;;;;5031910;28;20869;-60
2022/03/12 12:52:03;;;;;;;3.87;0.80;;;12.60;99.90;;;;;;5031049;28;20261;-59
2022/03/12 12:54:46;;;;;;;5.83;1.00;;;12.90;99.90;;;;;;5031001;28;20236;-60
2022/03/12 12:57:12;;;;;;;6.47;1.27;;;13.10;99.90;;;;;;5031131;28;20190;-59